Pagrindinis puslapis
METAR-TAF:

METAR-TAF

Oro uostai :

Quinhagak, Aliaska, Jungtinės Amerikos Valstijos

platuma: 59-45-18N, ilguma: 161-50-43W, Aukštis: 13 m

Dabartinis oras

Ataskaita buvo paskelbta 1 valandą ir 3 minutes, ne 16:56 UTC
Vėjas 13 kt iš Šiaurės Rytų
Temperatūra 2°C
Drėgmė 51%
Slėgis 1018 hPa
Matomumas: 16.1 km
Giedras dangus

METAR: PAQH 221656Z AUTO 05013KT 10SM CLR 02/M07 A3006 RMK AO2 SLP179 T00171067 FZRANO

Laikas: 09:59 (17:59 UTC)


TAF: trūkstamas

Orai ataskaitas ir orų prognozės (METAR, TAF).

turimą stotys yra geltonos ir raudonos taškus žemėlapyje.

Perkelti pele per norėdami pamatyti stoties vardą.

Tada spustelėkite, norėdami matyti oro stebėjimo ir prognozės.

Norėdami pakeisti žemėlapį: spustelėkite ant žalios mygtukų su juodo kryžiaus žemyn,; žalią mygtuką su brūkšneliu, jei norite nutolinti; arba žalių rodyklių gretimoms žemėlapius.


METAR-TAF: